Time;durP1;ratioP1;P1;durP2;ratioP2;P2;SDS_P1;SDS_P2;PMS_P1;PMS_P2;Temp;Humidity;BMP_temperature;BMP_pressure;BME280_temperature;BME280_humidity;BME280_pressure;Samples;Min_cycle;Max_cycle;Signal;HPM_P1;HPM_P2
2023/03/15 00:00:06;;;;;;;1.75;1.42;;;;;;;;;;4967229;28;20205;-85
2023/03/15 00:02:35;;;;;;;1.83;1.73;;;;;;;;;;5000152;28;20202;-85
2023/03/15 00:05:04;;;;;;;2.47;1.98;;;;;;;;;;4966973;28;20321;-85
2023/03/15 00:07:32;;;;;;;7.22;1.58;;;;;;;;;;5000640;28;20269;-84
2023/03/15 00:10:00;;;;;;;1.80;1.70;;;;;;;;;;5000336;28;20209;-84
2023/03/15 00:12:29;;;;;;;5.80;2.83;;;;;;;;;;5000935;28;20283;-85
2023/03/15 00:14:57;;;;;;;4.40;2.30;;;;;;;;;;4981558;28;20222;-85
2023/03/15 00:17:25;;;;;;;4.43;2.20;;;;;;;;;;4964314;28;20640;-85
2023/03/15 00:19:55;;;;;;;2.97;1.35;;;;;;;;;;4982380;28;20207;-85
2023/03/15 00:22:23;;;;;;;4.20;1.92;;;;;;;;;;4965195;28;20210;-85
2023/03/15 00:24:52;;;;;;;5.70;2.20;;;;;;;;;;4982553;28;20281;-85
2023/03/15 00:27:20;;;;;;;1.20;1.05;;;;;;;;;;5000566;28;20256;-85
2023/03/15 00:29:48;;;;;;;1.63;1.25;;;;;;;;;;5000030;28;20285;-85
2023/03/15 00:32:17;;;;;;;5.80;1.90;;;;;;;;;;4982887;28;20246;-85
2023/03/15 00:34:47;;;;;;;3.05;1.13;;;;;;;;;;4982638;28;20266;-85
2023/03/15 00:37:20;;;;;;;4.63;1.30;;;;;;;;;;4983095;28;20209;-85
2023/03/15 00:39:48;;;;;;;1.98;1.20;;;;;;;;;;5000137;28;20225;-85
2023/03/15 00:42:17;;;;;;;3.17;1.52;;;;;;;;;;4999387;28;20217;-85
2023/03/15 00:44:45;;;;;;;2.22;1.40;;;;;;;;;;4961047;28;20281;-84
2023/03/15 00:47:15;;;;;;;2.78;1.30;;;;;;;;;;5000706;28;20297;-85
2023/03/15 00:49:43;;;;;;;1.67;1.10;;;;;;;;;;4967808;28;20737;-84
2023/03/15 00:52:12;;;;;;;1.10;1.00;;;;;;;;;;4967480;28;20336;-85
2023/03/15 00:54:42;;;;;;;3.10;1.17;;;;;;;;;;5001267;28;20309;-85
2023/03/15 00:57:12;;;;;;;1.65;1.00;;;;;;;;;;4982994;28;20270;-85
2023/03/15 00:59:40;;;;;;;1.02;0.80;;;;;;;;;;5001359;28;20671;-85
2023/03/15 01:02:10;;;;;;;3.75;1.05;;;;;;;;;;4983052;28;20289;-86
2023/03/15 01:04:38;;;;;;;2.55;1.60;;;;;;;;;;5000827;28;20289;-84
2023/03/15 01:07:07;;;;;;;1.33;1.10;;;;;;;;;;4983558;28;20589;-83
2023/03/15 01:09:35;;;;;;;2.22;1.50;;;;;;;;;;5000995;28;20259;-84
2023/03/15 01:12:05;;;;;;;4.40;1.35;;;;;;;;;;5000385;28;20287;-86
2023/03/15 01:14:36;;;;;;;4.70;1.65;;;;;;;;;;4963549;28;20239;-86
2023/03/15 01:17:05;;;;;;;1.63;1.42;;;;;;;;;;4969197;28;20278;-86
2023/03/15 01:19:33;;;;;;;4.35;2.45;;;;;;;;;;4999025;28;20286;-88
2023/03/15 01:22:03;;;;;;;2.95;1.77;;;;;;;;;;4983233;28;20658;-85
2023/03/15 01:24:31;;;;;;;1.70;1.60;;;;;;;;;;5000309;28;20337;-86
2023/03/15 01:26:59;;;;;;;7.55;2.20;;;;;;;;;;4982986;28;20250;-84
2023/03/15 01:29:29;;;;;;;3.03;1.85;;;;;;;;;;4983152;28;20270;-85
2023/03/15 01:31:57;;;;;;;3.58;1.85;;;;;;;;;;4984174;28;20207;-85
2023/03/15 01:34:25;;;;;;;1.70;1.60;;;;;;;;;;4966734;28;20808;-85
2023/03/15 01:36:54;;;;;;;2.35;1.40;;;;;;;;;;4983328;28;20281;-85
2023/03/15 01:39:27;;;;;;;2.38;1.70;;;;;;;;;;4982645;28;20294;-85
2023/03/15 01:41:56;;;;;;;2.75;1.73;;;;;;;;;;4981590;28;20827;-85
2023/03/15 01:44:24;;;;;;;9.07;2.03;;;;;;;;;;4983369;28;20675;-86
2023/03/15 01:46:54;;;;;;;2.35;2.00;;;;;;;;;;4983649;28;20222;-85
2023/03/15 01:49:25;;;;;;;4.28;2.20;;;;;;;;;;4967282;28;20274;-85
2023/03/15 01:51:55;;;;;;;4.47;2.10;;;;;;;;;;4967236;28;20277;-85
2023/03/15 01:54:27;;;;;;;1.90;1.80;;;;;;;;;;4967259;28;20281;-85
2023/03/15 01:56:58;;;;;;;3.75;2.08;;;;;;;;;;4982618;28;20273;-85
2023/03/15 01:59:30;;;;;;;2.58;1.85;;;;;;;;;;4983056;28;20757;-86
2023/03/15 02:02:01;;;;;;;6.18;2.58;;;;;;;;;;4982458;28;20710;-87
2023/03/15 02:04:31;;;;;;;5.10;1.95;;;;;;;;;;4966310;28;20286;-87
2023/03/15 02:07:02;;;;;;;2.80;2.50;;;;;;;;;;4999850;28;20317;-87
2023/03/15 02:09:36;;;;;;;3.15;2.28;;;;;;;;;;4967135;28;20266;-87
2023/03/15 02:12:05;;;;;;;3.80;2.80;;;;;;;;;;4966340;28;20281;-87
2023/03/15 02:14:34;;;;;;;3.75;2.50;;;;;;;;;;5000162;28;20317;-87
2023/03/15 02:17:05;;;;;;;8.82;2.30;;;;;;;;;;4982537;28;20247;-87
2023/03/15 02:19:40;;;;;;;9.85;2.78;;;;;;;;;;4983483;28;20194;-85
2023/03/15 02:22:17;;;;;;;3.38;2.55;;;;;;;;;;4963590;28;20251;-86
2023/03/15 02:24:51;;;;;;;3.05;2.42;;;;;;;;;;4947490;28;20196;-86
2023/03/15 02:27:24;;;;;;;6.18;2.75;;;;;;;;;;4979625;28;20210;-87
2023/03/15 02:29:53;;;;;;;5.05;2.20;;;;;;;;;;4977712;28;20187;-86
2023/03/15 02:32:22;;;;;;;4.05;1.95;;;;;;;;;;4980855;28;20203;-86
2023/03/15 02:34:51;;;;;;;11.63;2.72;;;;;;;;;;4981159;28;20336;-86
2023/03/15 02:37:20;;;;;;;4.00;1.80;;;;;;;;;;4981504;28;20282;-86
2023/03/15 02:39:48;;;;;;;5.13;3.05;;;;;;;;;;4981357;28;20259;-86
2023/03/15 02:42:18;;;;;;;4.20;2.13;;;;;;;;;;4998863;28;20209;-86
2023/03/15 02:44:49;;;;;;;6.10;2.67;;;;;;;;;;4966953;28;20195;-86
2023/03/15 02:47:20;;;;;;;3.60;2.40;;;;;;;;;;4981930;28;20623;-86
2023/03/15 02:49:50;;;;;;;5.97;2.50;;;;;;;;;;4997350;28;20669;-86
2023/03/15 02:52:19;;;;;;;5.38;2.75;;;;;;;;;;4998539;28;20266;-86
2023/03/15 02:54:47;;;;;;;2.75;2.20;;;;;;;;;;5000926;28;20290;-86
2023/03/15 02:57:16;;;;;;;5.97;2.47;;;;;;;;;;4985068;28;20294;-86
2023/03/15 02:59:49;;;;;;;5.47;2.40;;;;;;;;;;4986321;28;20289;-86
2023/03/15 03:02:18;;;;;;;5.15;2.35;;;;;;;;;;4985738;28;20265;-86
2023/03/15 03:04:46;;;;;;;4.35;2.20;;;;;;;;;;5002632;28;20750;-86
2023/03/15 03:07:14;;;;;;;5.22;2.78;;;;;;;;;;4986328;28;20312;-87
2023/03/15 03:09:50;;;;;;;3.60;2.40;;;;;;;;;;4986398;28;20266;-86
2023/03/15 03:12:20;;;;;;;5.40;2.60;;;;;;;;;;4970297;28;20721;-86
2023/03/15 03:14:51;;;;;;;2.63;2.40;;;;;;;;;;4969369;28;20314;-87
2023/03/15 03:17:23;;;;;;;11.80;3.33;;;;;;;;;;4985771;28;20277;-86
2023/03/15 03:19:51;;;;;;;4.93;2.45;;;;;;;;;;4986112;28;20265;-87
2023/03/15 03:22:24;;;;;;;22.77;12.98;;;;;;;;;;4966655;28;20274;-87
2023/03/15 03:24:52;;;;;;;22.45;18.77;;;;;;;;;;4954830;28;20294;-86
2023/03/15 03:27:21;;;;;;;5.47;4.97;;;;;;;;;;5000589;28;20273;-86
2023/03/15 03:29:52;;;;;;;5.22;2.72;;;;;;;;;;4985941;28;20623;-86
2023/03/15 03:32:20;;;;;;;5.18;3.28;;;;;;;;;;5002593;28;20246;-86
2023/03/15 03:34:49;;;;;;;20.17;15.50;;;;;;;;;;4966386;28;20199;-86
2023/03/15 03:37:21;;;;;;;16.60;10.13;;;;;;;;;;4993710;28;20278;-86
2023/03/15 03:39:58;;;;;;;10.70;8.38;;;;;;;;;;4985762;28;20254;-86
2023/03/15 03:42:26;;;;;;;6.88;4.10;;;;;;;;;;4985368;28;20575;-86
2023/03/15 03:44:56;;;;;;;9.38;6.30;;;;;;;;;;4969609;28;20202;-86
2023/03/15 03:47:29;;;;;;;8.77;3.28;;;;;;;;;;4980798;28;20230;-87
2023/03/15 03:49:57;;;;;;;5.45;3.50;;;;;;;;;;5008067;28;20238;-84
2023/03/15 03:52:25;;;;;;;8.82;2.60;;;;;;;;;;5018035;28;20210;-86
2023/03/15 03:54:57;;;;;;;3.40;3.10;;;;;;;;;;4986000;28;20207;-86
2023/03/15 03:57:26;;;;;;;7.28;3.30;;;;;;;;;;5009786;28;20234;-87
2023/03/15 03:59:54;;;;;;;3.30;3.00;;;;;;;;;;4985341;28;20277;-86
2023/03/15 04:02:24;;;;;;;9.15;2.42;;;;;;;;;;4979601;28;20352;-85
2023/03/15 04:05:00;;;;;;;5.88;3.20;;;;;;;;;;4967014;28;20270;-86
2023/03/15 04:07:29;;;;;;;5.55;3.13;;;;;;;;;;4984724;28;20306;-86
2023/03/15 04:09:57;;;;;;;6.63;2.70;;;;;;;;;;4981625;28;20318;-86
2023/03/15 04:12:25;;;;;;;5.63;2.88;;;;;;;;;;4984580;28;20278;-86
2023/03/15 04:14:56;;;;;;;7.60;3.40;;;;;;;;;;4984786;28;20783;-84
2023/03/15 04:17:28;;;;;;;3.17;2.72;;;;;;;;;;4949598;28;20248;-86
2023/03/15 04:19:58;;;;;;;10.98;3.65;;;;;;;;;;4982679;28;20282;-87
2023/03/15 04:22:29;;;;;;;16.23;3.47;;;;;;;;;;4965811;28;20266;-86
2023/03/15 04:25:07;;;;;;;5.03;2.90;;;;;;;;;;4965556;28;20222;-86
2023/03/15 04:28:01;;;;;;;6.30;2.92;;;;;;;;;;4980880;28;20286;-86
2023/03/15 04:30:49;;;;;;;9.18;4.00;;;;;;;;;;4964936;28;20275;-86
2023/03/15 04:33:39;;;;;;;8.55;3.10;;;;;;;;;;4964687;28;20735;-86
2023/03/15 04:36:33;;;;;;;7.82;3.15;;;;;;;;;;4979341;28;20253;-86
2023/03/15 04:39:11;;;;;;;5.60;3.10;;;;;;;;;;4980851;28;20266;-86
2023/03/15 04:41:53;;;;;;;5.30;3.45;;;;;;;;;;4948041;28;20230;-87
2023/03/15 04:44:33;;;;;;;7.78;2.97;;;;;;;;;;4964693;28;20206;-85
2023/03/15 04:47:11;;;;;;;6.95;2.72;;;;;;;;;;4964787;28;20236;-86
2023/03/15 04:49:56;;;;;;;5.68;3.63;;;;;;;;;;4981233;28;20246;-85
2023/03/15 04:52:27;;;;;;;3.65;2.70;;;;;;;;;;4980709;28;20247;-86
2023/03/15 04:55:14;;;;;;;10.77;3.90;;;;;;;;;;4981130;28;20243;-86
2023/03/15 04:58:17;;;;;;;7.35;3.80;;;;;;;;;;4940367;29;20750;-85
2023/03/15 05:00:58;;;;;;;7.70;3.70;;;;;;;;;;4935693;28;20266;-86
2023/03/15 05:03:26;;;;;;;5.38;3.50;;;;;;;;;;4980223;28;20286;-86
2023/03/15 05:06:06;;;;;;;12.00;3.47;;;;;;;;;;4963829;28;20251;-86
2023/03/15 05:08:54;;;;;;;10.02;4.32;;;;;;;;;;4980239;28;20334;-86
2023/03/15 05:11:35;;;;;;;5.72;4.68;;;;;;;;;;4972797;28;20278;-86
2023/03/15 05:14:15;;;;;;;8.75;4.20;;;;;;;;;;4990898;28;20318;-84
2023/03/15 05:17:10;;;;;;;10.07;4.78;;;;;;;;;;4977737;28;20279;-84
2023/03/15 05:20:00;;;;;;;24.00;5.65;;;;;;;;;;4962731;28;20266;-84
2023/03/15 05:22:48;;;;;;;6.10;4.00;;;;;;;;;;4970796;28;20214;-85
2023/03/15 05:25:37;;;;;;;5.30;4.22;;;;;;;;;;4956809;28;20207;-84
2023/03/15 05:28:44;;;;;;;5.00;3.45;;;;;;;;;;4951372;29;20682;-84
2023/03/15 05:31:36;;;;;;;6.32;3.78;;;;;;;;;;4960511;28;20247;-86
2023/03/15 05:34:27;;;;;;;6.30;4.40;;;;;;;;;;4958573;28;20658;-85
2023/03/15 05:37:09;;;;;;;8.55;3.80;;;;;;;;;;4967997;28;20262;-85
2023/03/15 05:40:10;;;;;;;13.80;4.47;;;;;;;;;;4983023;28;20713;-84
2023/03/15 05:42:51;;;;;;;12.45;4.88;;;;;;;;;;4973794;28;20623;-85
2023/03/15 05:45:22;;;;;;;7.90;5.03;;;;;;;;;;4981046;28;20251;-85
2023/03/15 05:48:12;;;;;;;8.98;5.50;;;;;;;;;;4991731;28;20721;-86
2023/03/15 05:50:40;;;;;;;11.68;4.88;;;;;;;;;;4988017;28;20647;-85
2023/03/15 05:53:17;;;;;;;11.27;4.72;;;;;;;;;;4964749;28;20266;-84
2023/03/15 05:56:10;;;;;;;12.93;4.43;;;;;;;;;;4956273;28;20662;-85
2023/03/15 05:58:57;;;;;;;13.77;5.10;;;;;;;;;;4999149;28;20420;-84
2023/03/15 06:01:46;;;;;;;11.07;5.60;;;;;;;;;;4998919;28;20198;-85
2023/03/15 06:04:23;;;;;;;7.90;5.72;;;;;;;;;;4983274;28;20329;-85
2023/03/15 06:06:52;;;;;;;14.70;5.95;;;;;;;;;;4959718;28;20270;-85
2023/03/15 06:09:21;;;;;;;9.55;4.82;;;;;;;;;;4964511;28;20354;-85
2023/03/15 06:11:52;;;;;;;9.00;5.68;;;;;;;;;;4973222;28;20308;-84
2023/03/15 06:14:20;;;;;;;9.63;4.97;;;;;;;;;;4976794;28;20373;-84
2023/03/15 06:16:52;;;;;;;9.38;6.10;;;;;;;;;;4981656;28;20290;-86
2023/03/15 06:19:21;;;;;;;11.90;6.20;;;;;;;;;;4981419;28;20282;-85
2023/03/15 06:21:50;;;;;;;9.32;6.18;;;;;;;;;;4982310;28;20203;-85
2023/03/15 06:24:27;;;;;;;17.00;6.80;;;;;;;;;;4983176;28;20268;-85
2023/03/15 06:26:57;;;;;;;10.23;5.63;;;;;;;;;;4980625;28;20341;-85
2023/03/15 06:29:25;;;;;;;9.13;6.60;;;;;;;;;;4981876;28;20357;-84
2023/03/15 06:31:56;;;;;;;18.95;6.18;;;;;;;;;;4999094;28;20273;-83
2023/03/15 06:34:26;;;;;;;11.65;6.57;;;;;;;;;;4981661;28;20278;-84
2023/03/15 06:36:55;;;;;;;11.40;6.45;;;;;;;;;;4978705;28;20258;-84
2023/03/15 06:39:24;;;;;;;18.58;6.90;;;;;;;;;;4984213;28;20349;-83
2023/03/15 06:41:57;;;;;;;16.33;7.50;;;;;;;;;;4965328;28;20302;-85
2023/03/15 06:44:32;;;;;;;9.60;6.85;;;;;;;;;;4968848;28;20355;-86
2023/03/15 06:47:05;;;;;;;14.15;7.22;;;;;;;;;;4981737;28;20418;-86
2023/03/15 06:49:34;;;;;;;11.55;6.35;;;;;;;;;;4984449;28;20286;-87
2023/03/15 06:52:03;;;;;;;11.35;6.20;;;;;;;;;;4964086;28;20592;-85
2023/03/15 06:54:31;;;;;;;11.82;6.40;;;;;;;;;;4981351;28;20263;-86
2023/03/15 06:57:00;;;;;;;9.82;6.15;;;;;;;;;;4999622;28;20658;-87
2023/03/15 06:59:29;;;;;;;8.40;5.65;;;;;;;;;;4999592;28;20290;-86
2023/03/15 07:02:01;;;;;;;13.10;6.22;;;;;;;;;;4978696;28;20190;-85
2023/03/15 07:04:30;;;;;;;11.23;5.90;;;;;;;;;;4999018;28;20309;-86
2023/03/15 07:06:58;;;;;;;7.22;5.45;;;;;;;;;;4984117;28;20187;-85
2023/03/15 07:09:27;;;;;;;10.85;5.93;;;;;;;;;;4969728;28;20298;-86
2023/03/15 07:11:56;;;;;;;8.07;5.18;;;;;;;;;;4988846;28;20286;-86
2023/03/15 07:14:24;;;;;;;13.18;5.32;;;;;;;;;;4966828;28;20322;-87
2023/03/15 07:16:52;;;;;;;13.63;6.28;;;;;;;;;;4984807;28;20282;-83
2023/03/15 07:19:22;;;;;;;8.65;4.60;;;;;;;;;;4965393;28;20662;-85
2023/03/15 07:21:51;;;;;;;11.57;5.03;;;;;;;;;;4981216;28;20293;-83
2023/03/15 07:24:20;;;;;;;7.63;4.05;;;;;;;;;;4964922;28;20293;-83
2023/03/15 07:26:49;;;;;;;8.23;4.35;;;;;;;;;;4968551;28;20278;-85
2023/03/15 07:29:18;;;;;;;25.67;6.30;;;;;;;;;;4983625;28;20250;-84
2023/03/15 07:31:46;;;;;;;6.70;3.67;;;;;;;;;;4982160;28;20239;-84
2023/03/15 07:34:14;;;;;;;11.82;4.20;;;;;;;;;;4982345;28;20790;-84
2023/03/15 07:36:44;;;;;;;13.05;4.65;;;;;;;;;;4983420;28;20729;-83
2023/03/15 07:39:12;;;;;;;9.48;3.10;;;;;;;;;;4984040;28;20294;-83
2023/03/15 07:41:41;;;;;;;5.43;2.75;;;;;;;;;;5001576;28;20278;-84
2023/03/15 07:44:18;;;;;;;4.40;3.22;;;;;;;;;;4980441;28;20277;-84
2023/03/15 07:46:47;;;;;;;5.97;2.85;;;;;;;;;;4995308;28;20229;-83
2023/03/15 07:49:15;;;;;;;9.32;2.67;;;;;;;;;;4968881;28;20267;-83
2023/03/15 07:51:45;;;;;;;3.17;2.85;;;;;;;;;;4998770;28;20243;-83
2023/03/15 07:54:13;;;;;;;6.65;2.90;;;;;;;;;;5000217;28;20337;-82
2023/03/15 07:56:42;;;;;;;6.25;2.65;;;;;;;;;;5002381;28;20214;-83
2023/03/15 07:59:10;;;;;;;5.15;2.90;;;;;;;;;;4971169;28;20206;-83
2023/03/15 08:01:38;;;;;;;5.90;2.47;;;;;;;;;;5007696;28;20292;-82
2023/03/15 08:04:06;;;;;;;9.02;2.75;;;;;;;;;;4983603;28;20298;-82
2023/03/15 08:06:34;;;;;;;2.85;2.10;;;;;;;;;;5002474;28;20215;-83
2023/03/15 08:09:05;;;;;;;4.85;2.88;;;;;;;;;;5002014;28;20693;-84
2023/03/15 08:11:33;;;;;;;5.65;2.55;;;;;;;;;;4993322;28;20354;-83
2023/03/15 08:14:01;;;;;;;6.93;2.40;;;;;;;;;;4997494;28;20316;-83
2023/03/15 08:16:30;;;;;;;3.88;2.45;;;;;;;;;;5011805;28;20286;-82
2023/03/15 08:18:58;;;;;;;8.90;2.92;;;;;;;;;;5002034;28;20195;-82
2023/03/15 08:21:26;;;;;;;6.47;2.75;;;;;;;;;;4986301;28;20203;-84
2023/03/15 08:23:54;;;;;;;7.55;3.55;;;;;;;;;;4986220;28;20194;-83
2023/03/15 08:26:23;;;;;;;3.97;2.38;;;;;;;;;;4987714;28;20283;-83
2023/03/15 08:28:51;;;;;;;2.65;2.45;;;;;;;;;;4970443;28;20246;-83
2023/03/15 08:31:20;;;;;;;3.00;2.40;;;;;;;;;;5006212;28;20321;-84
2023/03/15 08:33:48;;;;;;;4.22;2.05;;;;;;;;;;4986643;28;20262;-85
2023/03/15 08:36:16;;;;;;;4.90;2.40;;;;;;;;;;4969440;28;20285;-84
2023/03/15 08:38:47;;;;;;;3.25;2.95;;;;;;;;;;4969211;28;20258;-84
2023/03/15 08:41:15;;;;;;;2.88;2.20;;;;;;;;;;4985866;28;20217;-84
2023/03/15 08:43:45;;;;;;;3.67;2.80;;;;;;;;;;4986369;28;20266;-85
2023/03/15 08:46:13;;;;;;;3.72;2.92;;;;;;;;;;5001400;28;20737;-84
2023/03/15 08:48:41;;;;;;;4.72;2.17;;;;;;;;;;5002738;28;20202;-85
2023/03/15 08:51:10;;;;;;;4.38;2.72;;;;;;;;;;4984140;28;20722;-85
2023/03/15 08:53:38;;;;;;;4.15;3.10;;;;;;;;;;4982596;28;20198;-84
2023/03/15 08:56:06;;;;;;;4.35;2.28;;;;;;;;;;5002931;28;20258;-83
2023/03/15 08:58:34;;;;;;;5.07;2.17;;;;;;;;;;5002970;28;20274;-84
2023/03/15 09:01:05;;;;;;;2.30;1.98;;;;;;;;;;4998930;28;20272;-85
2023/03/15 09:03:33;;;;;;;3.28;2.97;;;;;;;;;;4978235;28;20281;-83
2023/03/15 09:06:01;;;;;;;3.35;2.30;;;;;;;;;;5000294;28;20625;-84
2023/03/15 09:08:32;;;;;;;5.80;2.75;;;;;;;;;;4973512;28;20297;-85
2023/03/15 09:11:00;;;;;;;4.90;4.10;;;;;;;;;;4994842;28;20289;-85
2023/03/15 09:13:29;;;;;;;4.18;3.88;;;;;;;;;;4970552;28;20704;-85
2023/03/15 09:15:58;;;;;;;3.40;3.10;;;;;;;;;;5006388;28;20258;-84
2023/03/15 09:18:28;;;;;;;3.33;3.00;;;;;;;;;;4974824;28;20215;-83
2023/03/15 09:20:57;;;;;;;3.92;3.72;;;;;;;;;;4974205;28;20207;-83
2023/03/15 09:23:26;;;;;;;3.90;3.70;;;;;;;;;;4994210;28;20289;-83
2023/03/15 09:25:54;;;;;;;4.20;3.90;;;;;;;;;;5004454;28;20254;-84
2023/03/15 09:28:24;;;;;;;4.50;4.20;;;;;;;;;;4980534;28;20381;-84
2023/03/15 09:30:52;;;;;;;5.32;4.85;;;;;;;;;;4998131;28;20286;-83
2023/03/15 09:33:24;;;;;;;5.35;4.65;;;;;;;;;;4964408;28;20290;-83
2023/03/15 09:35:57;;;;;;;4.47;4.10;;;;;;;;;;5001458;28;20262;-83
2023/03/15 09:38:25;;;;;;;4.45;4.10;;;;;;;;;;4974763;28;20255;-84
2023/03/15 09:40:57;;;;;;;3.60;3.50;;;;;;;;;;5001980;28;20254;-84
2023/03/15 09:43:39;;;;;;;5.03;4.63;;;;;;;;;;4997634;28;20694;-83
2023/03/15 09:46:15;;;;;;;5.10;4.70;;;;;;;;;;5003634;28;20246;-83
2023/03/15 09:48:49;;;;;;;4.78;4.40;;;;;;;;;;4967864;28;20267;-85
2023/03/15 09:51:26;;;;;;;5.13;4.75;;;;;;;;;;4977082;28;20286;-84
2023/03/15 09:53:57;;;;;;;5.32;4.85;;;;;;;;;;4983651;28;20273;-84
2023/03/15 09:56:28;;;;;;;4.40;4.10;;;;;;;;;;4992061;28;20270;-84
2023/03/15 09:58:58;;;;;;;5.97;5.47;;;;;;;;;;4966930;28;20247;-85
2023/03/15 10:01:29;;;;;;;5.68;5.20;;;;;;;;;;4975764;28;20341;-85
2023/03/15 10:03:58;;;;;;;6.15;5.55;;;;;;;;;;4990249;28;20286;-82
2023/03/15 10:06:33;;;;;;;4.93;4.60;;;;;;;;;;4981377;28;20286;-82
2023/03/15 10:09:03;;;;;;;5.75;5.30;;;;;;;;;;4999527;28;20242;-81
2023/03/15 10:11:37;;;;;;;5.40;4.93;;;;;;;;;;4988585;28;20308;-81
2023/03/15 10:14:13;;;;;;;4.65;4.25;;;;;;;;;;5003055;28;20254;-83
2023/03/15 10:16:43;;;;;;;4.60;4.20;;;;;;;;;;4994313;28;20286;-83
2023/03/15 10:19:18;;;;;;;5.25;3.50;;;;;;;;;;4986939;28;20279;-84
2023/03/15 10:21:52;;;;;;;3.25;2.88;;;;;;;;;;4980982;28;20281;-83
2023/03/15 10:24:22;;;;;;;4.28;2.50;;;;;;;;;;4980023;28;20277;-84
2023/03/15 10:26:51;;;;;;;2.00;1.77;;;;;;;;;;4978200;28;20329;-83
2023/03/15 10:29:21;;;;;;;2.45;1.70;;;;;;;;;;4993623;28;20268;-83
2023/03/15 10:31:51;;;;;;;2.78;1.83;;;;;;;;;;4996183;28;20210;-84
2023/03/15 10:34:20;;;;;;;5.97;2.53;;;;;;;;;;5001360;28;20902;-83
2023/03/15 10:36:53;;;;;;;3.95;2.20;;;;;;;;;;4982656;28;20631;-85
2023/03/15 10:39:23;;;;;;;2.90;2.03;;;;;;;;;;4996145;28;20832;-83
2023/03/15 10:41:51;;;;;;;1.40;1.30;;;;;;;;;;4999376;28;20289;-83
2023/03/15 10:44:21;;;;;;;2.50;1.70;;;;;;;;;;4965188;28;20271;-83
2023/03/15 10:47:01;;;;;;;2.47;1.42;;;;;;;;;;4985001;28;20677;-83
2023/03/15 10:49:36;;;;;;;3.33;2.08;;;;;;;;;;4967880;28;20278;-84
2023/03/15 10:52:06;;;;;;;2.65;1.58;;;;;;;;;;4972371;28;20305;-84
2023/03/15 10:54:35;;;;;;;3.25;1.98;;;;;;;;;;4991160;28;20287;-84
2023/03/15 10:57:04;;;;;;;3.35;1.90;;;;;;;;;;4970329;28;20883;-84
2023/03/15 10:59:35;;;;;;;2.30;1.65;;;;;;;;;;4968291;28;20282;-84
2023/03/15 11:02:20;;;;;;;4.28;2.10;;;;;;;;;;4977697;28;20321;-84
2023/03/15 11:04:50;;;;;;;2.88;1.88;;;;;;;;;;4992755;28;20262;-85
2023/03/15 11:07:20;;;;;;;2.15;1.83;;;;;;;;;;4986096;28;20286;-85
2023/03/15 11:09:52;;;;;;;5.97;2.20;;;;;;;;;;4967347;28;20210;-84
2023/03/15 11:12:24;;;;;;;3.78;1.92;;;;;;;;;;4973891;28;20218;-85
2023/03/15 11:14:54;;;;;;;2.85;1.65;;;;;;;;;;4962806;28;20395;-84
2023/03/15 11:17:23;;;;;;;2.35;1.98;;;;;;;;;;4976906;28;20294;-84
2023/03/15 11:19:55;;;;;;;3.65;1.80;;;;;;;;;;4979285;28;20189;-84
2023/03/15 11:22:26;;;;;;;2.13;1.85;;;;;;;;;;4977042;28;20204;-83
2023/03/15 11:24:54;;;;;;;4.63;2.20;;;;;;;;;;4966078;28;20266;-85
2023/03/15 11:27:24;;;;;;;2.65;2.00;;;;;;;;;;4949914;28;20195;-84
2023/03/15 11:29:55;;;;;;;1.90;1.80;;;;;;;;;;4964488;28;20282;-84
2023/03/15 11:32:24;;;;;;;4.35;2.05;;;;;;;;;;4946828;28;20220;-84
2023/03/15 11:34:56;;;;;;;2.20;1.98;;;;;;;;;;4977983;28;20262;-84
2023/03/15 11:37:29;;;;;;;1.70;1.60;;;;;;;;;;4984245;28;20191;-83
2023/03/15 11:40:00;;;;;;;2.65;2.03;;;;;;;;;;4983451;28;20255;-84
2023/03/15 11:42:31;;;;;;;2.28;2.00;;;;;;;;;;4949529;28;20295;-84
2023/03/15 11:45:02;;;;;;;2.13;2.00;;;;;;;;;;4984600;28;20223;-84
2023/03/15 11:47:35;;;;;;;3.58;2.83;;;;;;;;;;4965641;28;20274;-84
2023/03/15 11:50:04;;;;;;;2.60;2.40;;;;;;;;;;4964487;28;20941;-84
2023/03/15 11:52:33;;;;;;;2.00;1.90;;;;;;;;;;4944011;28;20226;-84
2023/03/15 11:55:03;;;;;;;2.60;2.15;;;;;;;;;;4948719;28;20359;-84
2023/03/15 11:57:41;;;;;;;3.13;2.90;;;;;;;;;;4962691;28;20281;-84
2023/03/15 12:00:19;;;;;;;2.55;2.45;;;;;;;;;;4946348;28;20204;-84
2023/03/15 12:02:50;;;;;;;2.50;2.25;;;;;;;;;;4961339;28;20218;-84
2023/03/15 12:05:37;;;;;;;3.90;2.85;;;;;;;;;;4982696;28;20446;-85
2023/03/15 12:08:23;;;;;;;4.95;3.60;;;;;;;;;;4979451;28;20283;-84
2023/03/15 12:10:55;;;;;;;3.38;3.08;;;;;;;;;;4949346;28;20248;-84
2023/03/15 12:13:26;;;;;;;3.75;2.30;;;;;;;;;;4970493;28;20278;-85
2023/03/15 12:15:54;;;;;;;3.55;3.25;;;;;;;;;;4988931;28;20259;-85
2023/03/15 12:18:26;;;;;;;4.00;3.63;;;;;;;;;;4988555;28;20570;-84
2023/03/15 12:21:05;;;;;;;5.47;3.10;;;;;;;;;;4975311;28;20267;-85
2023/03/15 12:23:38;;;;;;;6.38;3.75;;;;;;;;;;4994928;28;20281;-83
2023/03/15 12:26:14;;;;;;;4.22;3.63;;;;;;;;;;4994024;28;20464;-85
2023/03/15 12:28:50;;;;;;;3.65;3.40;;;;;;;;;;4974802;28;20269;-85
2023/03/15 12:31:19;;;;;;;4.53;4.15;;;;;;;;;;4956212;28;20196;-85
2023/03/15 12:33:48;;;;;;;7.47;3.60;;;;;;;;;;4990342;28;20329;-85
2023/03/15 12:36:26;;;;;;;5.65;4.20;;;;;;;;;;4989990;28;20282;-84
2023/03/15 12:39:01;;;;;;;7.38;4.18;;;;;;;;;;4983908;28;20274;-84
2023/03/15 12:41:42;;;;;;;4.20;3.80;;;;;;;;;;4973142;28;20255;-84
2023/03/15 12:44:24;;;;;;;4.18;3.78;;;;;;;;;;4973311;28;20278;-84
2023/03/15 12:46:59;;;;;;;7.57;3.80;;;;;;;;;;4973231;28;20278;-84
2023/03/15 12:49:35;;;;;;;3.35;3.15;;;;;;;;;;4972380;28;20299;-84
2023/03/15 12:52:04;;;;;;;4.93;4.47;;;;;;;;;;4976993;28;20297;-84
2023/03/15 12:54:40;;;;;;;4.00;3.72;;;;;;;;;;4990092;28;20282;-85
2023/03/15 12:57:11;;;;;;;3.90;3.60;;;;;;;;;;4973140;28;20269;-84
2023/03/15 12:59:46;;;;;;;7.47;4.20;;;;;;;;;;4970798;28;20628;-84
2023/03/15 13:02:23;;;;;;;4.25;3.90;;;;;;;;;;4973659;28;20276;-85
2023/03/15 13:04:57;;;;;;;5.85;5.13;;;;;;;;;;4957006;28;20714;-84
2023/03/15 13:07:29;;;;;;;4.30;4.10;;;;;;;;;;4967314;28;20223;-84
2023/03/15 13:10:13;;;;;;;5.15;4.75;;;;;;;;;;4976877;28;20278;-83
2023/03/15 13:12:45;;;;;;;6.13;5.72;;;;;;;;;;4962062;28;20219;-84
2023/03/15 13:15:18;;;;;;;5.55;5.25;;;;;;;;;;4986910;28;20274;-84
2023/03/15 13:17:49;;;;;;;6.20;5.88;;;;;;;;;;4982390;28;20550;-85
2023/03/15 13:20:28;;;;;;;6.03;5.40;;;;;;;;;;4946640;28;20287;-84
2023/03/15 13:23:03;;;;;;;5.22;4.95;;;;;;;;;;4955565;28;20267;-83
2023/03/15 13:25:34;;;;;;;6.25;5.88;;;;;;;;;;4956052;28;20294;-84
2023/03/15 13:28:07;;;;;;;5.72;5.43;;;;;;;;;;4953318;28;20207;-84
2023/03/15 13:30:37;;;;;;;6.68;6.35;;;;;;;;;;4973425;28;20343;-84
2023/03/15 13:33:09;;;;;;;6.20;5.90;;;;;;;;;;4969217;28;20670;-83
2023/03/15 13:35:44;;;;;;;7.43;7.00;;;;;;;;;;4941810;28;20279;-84
2023/03/15 13:38:23;;;;;;;7.28;6.80;;;;;;;;;;4958164;28;20262;-84
2023/03/15 13:40:52;;;;;;;8.00;7.60;;;;;;;;;;4951518;28;20274;-85
2023/03/15 13:43:27;;;;;;;11.48;10.45;;;;;;;;;;4948229;28;20258;-85
2023/03/15 13:45:58;;;;;;;8.48;8.07;;;;;;;;;;4964816;28;20246;-84
2023/03/15 13:48:27;;;;;;;9.10;8.60;;;;;;;;;;4960974;28;20221;-84
2023/03/15 13:50:56;;;;;;;9.65;9.18;;;;;;;;;;4978479;28;20342;-85
2023/03/15 13:53:25;;;;;;;8.27;7.97;;;;;;;;;;4969859;28;20231;-85
2023/03/15 13:55:54;;;;;;;7.80;7.50;;;;;;;;;;4987098;28;20247;-85
2023/03/15 13:58:24;;;;;;;8.60;8.10;;;;;;;;;;4953093;29;20263;-86
2023/03/15 14:00:57;;;;;;;8.43;7.93;;;;;;;;;;4942180;28;20314;-86
2023/03/15 14:03:26;;;;;;;9.65;9.25;;;;;;;;;;4955624;28;20692;-86
2023/03/15 14:05:55;;;;;;;12.10;10.18;;;;;;;;;;4956657;28;20364;-85
2023/03/15 14:08:25;;;;;;;8.60;8.20;;;;;;;;;;4955481;28;20338;-84
2023/03/15 14:11:02;;;;;;;8.70;8.30;;;;;;;;;;4971827;28;20195;-85
2023/03/15 14:13:33;;;;;;;9.70;9.20;;;;;;;;;;4959987;28;20236;-84
2023/03/15 14:16:03;;;;;;;8.98;8.57;;;;;;;;;;4972122;28;20357;-85
2023/03/15 14:18:42;;;;;;;8.88;8.57;;;;;;;;;;4958363;28;20263;-84
2023/03/15 14:21:13;;;;;;;11.43;10.82;;;;;;;;;;4976787;28;20739;-84
2023/03/15 14:23:43;;;;;;;10.65;10.15;;;;;;;;;;4972135;28;20251;-84
2023/03/15 14:26:13;;;;;;;9.63;9.33;;;;;;;;;;4954376;28;20722;-84
2023/03/15 14:28:50;;;;;;;10.20;9.80;;;;;;;;;;4969912;28;20717;-85
2023/03/15 14:31:23;;;;;;;10.97;10.57;;;;;;;;;;4989801;28;20559;-83
2023/03/15 14:33:54;;;;;;;11.60;10.80;;;;;;;;;;4985079;28;20728;-83
2023/03/15 14:36:26;;;;;;;10.73;10.13;;;;;;;;;;4989070;28;20675;-83
2023/03/15 14:38:58;;;;;;;10.30;9.70;;;;;;;;;;4989497;28;20613;-83
2023/03/15 14:41:33;;;;;;;9.53;9.13;;;;;;;;;;4982620;28;20692;-84
2023/03/15 14:44:03;;;;;;;11.13;10.60;;;;;;;;;;4966137;28;20705;-84
2023/03/15 14:46:35;;;;;;;10.15;9.65;;;;;;;;;;4998933;28;20588;-85
2023/03/15 14:49:03;;;;;;;10.93;10.40;;;;;;;;;;5001974;28;20334;-83
2023/03/15 14:51:32;;;;;;;11.30;10.73;;;;;;;;;;4988462;28;20292;-83
2023/03/15 14:54:01;;;;;;;11.10;10.40;;;;;;;;;;4995703;28;20697;-85
2023/03/15 14:56:29;;;;;;;11.45;10.85;;;;;;;;;;4994237;28;20349;-83
2023/03/15 14:58:57;;;;;;;11.25;10.75;;;;;;;;;;4959259;29;20268;-83
2023/03/15 15:01:31;;;;;;;11.50;11.00;;;;;;;;;;4971395;29;20244;-84
2023/03/15 15:04:00;;;;;;;11.35;10.68;;;;;;;;;;4993399;28;20286;-84
2023/03/15 15:06:32;;;;;;;10.80;10.40;;;;;;;;;;5010744;28;20204;-84
2023/03/15 15:09:04;;;;;;;10.95;10.55;;;;;;;;;;4993700;28;20275;-84